sensor_id;sensor_type;location;lat;lon;timestamp;pressure;altitude;pressure_sealevel;temperature;humidity
57250;BME280;43102;52.014;-0.680;2023-08-06T00:00:00;100421;;;14.66;72.71
57250;BME280;43102;52.014;-0.680;2023-08-06T00:01:00;100421;;;14.66;72.71
57250;BME280;43102;52.014;-0.680;2023-08-06T00:02:00;100421;;;14.66;72.71
57250;BME280;43102;52.014;-0.680;2023-08-06T00:03:00;100421;;;14.66;72.71
57250;BME280;43102;52.014;-0.680;2023-08-06T00:04:00;100413;;;14.65;72.59
57250;BME280;43102;52.014;-0.680;2023-08-06T00:05:00;100413;;;14.65;72.59
57250;BME280;43102;52.014;-0.680;2023-08-06T00:06:00;100413;;;14.65;72.59
57250;BME280;43102;52.014;-0.680;2023-08-06T00:07:00;100413;;;14.65;72.59
57250;BME280;43102;52.014;-0.680;2023-08-06T00:08:00;100413;;;14.65;72.59
57250;BME280;43102;52.014;-0.680;2023-08-06T00:09:00;100409;;;14.64;72.52
57250;BME280;43102;52.014;-0.680;2023-08-06T00:10:00;100409;;;14.64;72.52
57250;BME280;43102;52.014;-0.680;2023-08-06T00:11:00;100409;;;14.64;72.52
57250;BME280;43102;52.014;-0.680;2023-08-06T00:12:00;100409;;;14.64;72.52
57250;BME280;43102;52.014;-0.680;2023-08-06T00:13:00;100409;;;14.64;72.52
57250;BME280;43102;52.014;-0.680;2023-08-06T00:14:00;100414;;;14.50;72.76
57250;BME280;43102;52.014;-0.680;2023-08-06T00:15:00;100414;;;14.50;72.76
57250;BME280;43102;52.014;-0.680;2023-08-06T00:16:08;100414;;;14.50;72.76
57250;BME280;43102;52.014;-0.680;2023-08-06T00:17:00;100414;;;14.50;72.76
57250;BME280;43102;52.014;-0.680;2023-08-06T00:18:00;100414;;;14.50;72.76
57250;BME280;43102;52.014;-0.680;2023-08-06T00:19:00;100415;;;14.50;72.54
57250;BME280;43102;52.014;-0.680;2023-08-06T00:20:01;100415;;;14.50;72.54
57250;BME280;43102;52.014;-0.680;2023-08-06T00:21:00;100415;;;14.50;72.54
57250;BME280;43102;52.014;-0.680;2023-08-06T00:22:00;100415;;;14.50;72.54
57250;BME280;43102;52.014;-0.680;2023-08-06T00:23:00;100415;;;14.50;72.54
57250;BME280;43102;52.014;-0.680;2023-08-06T00:24:00;100425;;;14.50;72.62
57250;BME280;43102;52.014;-0.680;2023-08-06T00:25:00;100425;;;14.50;72.62
57250;BME280;43102;52.014;-0.680;2023-08-06T00:26:00;100425;;;14.50;72.62
57250;BME280;43102;52.014;-0.680;2023-08-06T00:27:00;100425;;;14.50;72.62
57250;BME280;43102;52.014;-0.680;2023-08-06T00:28:00;100425;;;14.50;72.62
57250;BME280;43102;52.014;-0.680;2023-08-06T00:29:00;100424;;;14.44;72.58
57250;BME280;43102;52.014;-0.680;2023-08-06T00:30:00;100424;;;14.44;72.58
57250;BME280;43102;52.014;-0.680;2023-08-06T00:31:00;100424;;;14.44;72.58
57250;BME280;43102;52.014;-0.680;2023-08-06T00:32:00;100424;;;14.44;72.58
57250;BME280;43102;52.014;-0.680;2023-08-06T00:33:00;100424;;;14.44;72.58
57250;BME280;43102;52.014;-0.680;2023-08-06T00:34:00;100429;;;14.35;72.60
57250;BME280;43102;52.014;-0.680;2023-08-06T00:35:00;100429;;;14.35;72.60
57250;BME280;43102;52.014;-0.680;2023-08-06T00:36:00;100429;;;14.35;72.60
57250;BME280;43102;52.014;-0.680;2023-08-06T00:37:00;100429;;;14.35;72.60
57250;BME280;43102;52.014;-0.680;2023-08-06T00:38:00;100429;;;14.35;72.60
57250;BME280;43102;52.014;-0.680;2023-08-06T00:39:00;100435;;;14.30;72.49
57250;BME280;43102;52.014;-0.680;2023-08-06T00:40:01;100435;;;14.30;72.49
57250;BME280;43102;52.014;-0.680;2023-08-06T00:41:00;100435;;;14.30;72.49
57250;BME280;43102;52.014;-0.680;2023-08-06T00:42:00;100435;;;14.30;72.49
57250;BME280;43102;52.014;-0.680;2023-08-06T00:43:00;100435;;;14.30;72.49
57250;BME280;43102;52.014;-0.680;2023-08-06T00:44:00;100443;;;14.28;72.49
57250;BME280;43102;52.014;-0.680;2023-08-06T00:45:00;100443;;;14.28;72.49
57250;BME280;43102;52.014;-0.680;2023-08-06T00:46:00;100443;;;14.28;72.49
57250;BME280;43102;52.014;-0.680;2023-08-06T00:47:00;100443;;;14.28;72.49
57250;BME280;43102;52.014;-0.680;2023-08-06T00:48:00;100443;;;14.28;72.49
57250;BME280;43102;52.014;-0.680;2023-08-06T00:49:00;100446;;;14.27;72.20
57250;BME280;43102;52.014;-0.680;2023-08-06T00:50:00;100446;;;14.27;72.20
57250;BME280;43102;52.014;-0.680;2023-08-06T00:51:00;100446;;;14.27;72.20
57250;BME280;43102;52.014;-0.680;2023-08-06T00:52:00;100446;;;14.27;72.20
57250;BME280;43102;52.014;-0.680;2023-08-06T00:53:00;100446;;;14.27;72.20
57250;BME280;43102;52.014;-0.680;2023-08-06T00:54:00;100449;;;14.23;72.24
57250;BME280;43102;52.014;-0.680;2023-08-06T00:55:00;100449;;;14.23;72.24
57250;BME280;43102;52.014;-0.680;2023-08-06T00:56:00;100449;;;14.23;72.24
57250;BME280;43102;52.014;-0.680;2023-08-06T00:57:01;100449;;;14.23;72.24
57250;BME280;43102;52.014;-0.680;2023-08-06T00:58:00;100449;;;14.23;72.24
57250;BME280;43102;52.014;-0.680;2023-08-06T00:59:00;100454;;;14.19;72.07
57250;BME280;43102;52.014;-0.680;2023-08-06T01:00:00;100454;;;14.19;72.07
57250;BME280;43102;52.014;-0.680;2023-08-06T01:01:00;100454;;;14.19;72.07
57250;BME280;43102;52.014;-0.680;2023-08-06T01:02:00;100454;;;14.19;72.07
57250;BME280;43102;52.014;-0.680;2023-08-06T01:03:00;100454;;;14.19;72.07
57250;BME280;43102;52.014;-0.680;2023-08-06T01:04:00;100452;;;14.17;72.02
57250;BME280;43102;52.014;-0.680;2023-08-06T01:05:00;100452;;;14.17;72.02
57250;BME280;43102;52.014;-0.680;2023-08-06T01:06:00;100452;;;14.17;72.02
57250;BME280;43102;52.014;-0.680;2023-08-06T01:07:02;100452;;;14.17;72.02
57250;BME280;43102;52.014;-0.680;2023-08-06T01:09:01;100462;;;14.10;71.96
57250;BME280;43102;52.014;-0.680;2023-08-06T01:10:08;100462;;;14.10;71.96
57250;BME280;43102;52.014;-0.680;2023-08-06T01:13:06;100462;;;14.10;71.96
57250;BME280;43102;52.014;-0.680;2023-08-06T01:14:02;100462;;;14.04;72.10
57250;BME280;43102;52.014;-0.680;2023-08-06T01:15:07;100462;;;14.04;72.10
57250;BME280;43102;52.014;-0.680;2023-08-06T01:16:00;100462;;;14.04;72.10
57250;BME280;43102;52.014;-0.680;2023-08-06T01:17:00;100462;;;14.04;72.10
57250;BME280;43102;52.014;-0.680;2023-08-06T01:18:00;100462;;;14.04;72.10
57250;BME280;43102;52.014;-0.680;2023-08-06T01:19:00;100471;;;14.02;72.08
57250;BME280;43102;52.014;-0.680;2023-08-06T01:20:00;100471;;;14.02;72.08
57250;BME280;43102;52.014;-0.680;2023-08-06T01:21:00;100471;;;14.02;72.08
57250;BME280;43102;52.014;-0.680;2023-08-06T01:22:00;100471;;;14.02;72.08
57250;BME280;43102;52.014;-0.680;2023-08-06T01:23:00;100471;;;14.02;72.08
57250;BME280;43102;52.014;-0.680;2023-08-06T01:24:00;100473;;;14.01;72.10
57250;BME280;43102;52.014;-0.680;2023-08-06T01:25:00;100473;;;14.01;72.10
57250;BME280;43102;52.014;-0.680;2023-08-06T01:26:03;100473;;;14.01;72.10
57250;BME280;43102;52.014;-0.680;2023-08-06T01:28:04;100473;;;14.01;72.10
57250;BME280;43102;52.014;-0.680;2023-08-06T01:29:08;100477;;;14.00;71.95
57250;BME280;43102;52.014;-0.680;2023-08-06T01:30:06;100477;;;14.00;71.95
57250;BME280;43102;52.014;-0.680;2023-08-06T01:31:01;100477;;;14.00;71.95
57250;BME280;43102;52.014;-0.680;2023-08-06T01:32:00;100477;;;14.00;71.95
57250;BME280;43102;52.014;-0.680;2023-08-06T01:33:00;100477;;;14.00;71.95
57250;BME280;43102;52.014;-0.680;2023-08-06T01:34:01;100482;;;13.93;71.94
57250;BME280;43102;52.014;-0.680;2023-08-06T01:35:00;100482;;;13.93;71.94
57250;BME280;43102;52.014;-0.680;2023-08-06T01:36:00;100482;;;13.93;71.94
57250;BME280;43102;52.014;-0.680;2023-08-06T01:37:00;100482;;;13.93;71.94
57250;BME280;43102;52.014;-0.680;2023-08-06T01:38:00;100482;;;13.93;71.94
57250;BME280;43102;52.014;-0.680;2023-08-06T01:39:00;100483;;;13.88;71.87
57250;BME280;43102;52.014;-0.680;2023-08-06T01:40:00;100483;;;13.88;71.87
57250;BME280;43102;52.014;-0.680;2023-08-06T01:41:00;100483;;;13.88;71.87
57250;BME280;43102;52.014;-0.680;2023-08-06T01:42:00;100483;;;13.88;71.87
57250;BME280;43102;52.014;-0.680;2023-08-06T01:43:00;100483;;;13.88;71.87
57250;BME280;43102;52.014;-0.680;2023-08-06T01:44:00;100492;;;13.87;71.98
57250;BME280;43102;52.014;-0.680;2023-08-06T01:45:00;100492;;;13.87;71.98
57250;BME280;43102;52.014;-0.680;2023-08-06T01:46:00;100492;;;13.87;71.98
57250;BME280;43102;52.014;-0.680;2023-08-06T01:47:00;100492;;;13.87;71.98
57250;BME280;43102;52.014;-0.680;2023-08-06T01:48:00;100492;;;13.87;71.98
57250;BME280;43102;52.014;-0.680;2023-08-06T01:49:00;100498;;;13.86;71.95
57250;BME280;43102;52.014;-0.680;2023-08-06T01:50:00;100498;;;13.86;71.95
57250;BME280;43102;52.014;-0.680;2023-08-06T01:51:00;100498;;;13.86;71.95
57250;BME280;43102;52.014;-0.680;2023-08-06T01:52:00;100498;;;13.86;71.95
57250;BME280;43102;52.014;-0.680;2023-08-06T01:53:00;100498;;;13.86;71.95
57250;BME280;43102;52.014;-0.680;2023-08-06T01:54:00;100506;;;13.83;71.82
57250;BME280;43102;52.014;-0.680;2023-08-06T01:55:00;100506;;;13.83;71.82
57250;BME280;43102;52.014;-0.680;2023-08-06T01:56:00;100506;;;13.83;71.82
57250;BME280;43102;52.014;-0.680;2023-08-06T01:57:00;100506;;;13.83;71.82
57250;BME280;43102;52.014;-0.680;2023-08-06T01:58:00;100506;;;13.83;71.82
57250;BME280;43102;52.014;-0.680;2023-08-06T01:59:00;100508;;;13.77;71.84
57250;BME280;43102;52.014;-0.680;2023-08-06T02:00:00;100508;;;13.77;71.84
57250;BME280;43102;52.014;-0.680;2023-08-06T02:01:00;100508;;;13.77;71.84
57250;BME280;43102;52.014;-0.680;2023-08-06T02:02:00;100508;;;13.77;71.84
57250;BME280;43102;52.014;-0.680;2023-08-06T02:03:00;100508;;;13.77;71.84
57250;BME280;43102;52.014;-0.680;2023-08-06T02:04:00;100520;;;13.76;71.85
57250;BME280;43102;52.014;-0.680;2023-08-06T02:05:00;100520;;;13.76;71.85
57250;BME280;43102;52.014;-0.680;2023-08-06T02:06:00;100520;;;13.76;71.85
57250;BME280;43102;52.014;-0.680;2023-08-06T02:07:00;100520;;;13.76;71.85
57250;BME280;43102;52.014;-0.680;2023-08-06T02:08:00;100520;;;13.76;71.85
57250;BME280;43102;52.014;-0.680;2023-08-06T02:09:00;100520;;;13.71;71.94
57250;BME280;43102;52.014;-0.680;2023-08-06T02:10:00;100520;;;13.71;71.94
57250;BME280;43102;52.014;-0.680;2023-08-06T02:11:00;100520;;;13.71;71.94
57250;BME280;43102;52.014;-0.680;2023-08-06T02:12:00;100520;;;13.71;71.94
57250;BME280;43102;52.014;-0.680;2023-08-06T02:13:00;100520;;;13.71;71.94
57250;BME280;43102;52.014;-0.680;2023-08-06T02:14:00;100526;;;13.72;72.05
57250;BME280;43102;52.014;-0.680;2023-08-06T02:15:00;100526;;;13.72;72.05
57250;BME280;43102;52.014;-0.680;2023-08-06T02:16:00;100526;;;13.72;72.05
57250;BME280;43102;52.014;-0.680;2023-08-06T02:17:00;100526;;;13.72;72.05
57250;BME280;43102;52.014;-0.680;2023-08-06T02:18:00;100526;;;13.72;72.05
57250;BME280;43102;52.014;-0.680;2023-08-06T02:19:00;100531;;;13.65;72.12
57250;BME280;43102;52.014;-0.680;2023-08-06T02:20:00;100531;;;13.65;72.12
57250;BME280;43102;52.014;-0.680;2023-08-06T02:21:00;100531;;;13.65;72.12
57250;BME280;43102;52.014;-0.680;2023-08-06T02:22:00;100531;;;13.65;72.12
57250;BME280;43102;52.014;-0.680;2023-08-06T02:23:00;100531;;;13.65;72.12
57250;BME280;43102;52.014;-0.680;2023-08-06T02:24:00;100533;;;13.66;72.10
57250;BME280;43102;52.014;-0.680;2023-08-06T02:25:00;100533;;;13.66;72.10
57250;BME280;43102;52.014;-0.680;2023-08-06T02:26:00;100533;;;13.66;72.10
57250;BME280;43102;52.014;-0.680;2023-08-06T02:27:00;100533;;;13.66;72.10
57250;BME280;43102;52.014;-0.680;2023-08-06T02:28:00;100533;;;13.66;72.10
57250;BME280;43102;52.014;-0.680;2023-08-06T02:29:00;100533;;;13.63;72.04
57250;BME280;43102;52.014;-0.680;2023-08-06T02:30:00;100533;;;13.63;72.04
57250;BME280;43102;52.014;-0.680;2023-08-06T02:31:00;100533;;;13.63;72.04
57250;BME280;43102;52.014;-0.680;2023-08-06T02:32:00;100533;;;13.63;72.04
57250;BME280;43102;52.014;-0.680;2023-08-06T02:33:00;100533;;;13.63;72.04
57250;BME280;43102;52.014;-0.680;2023-08-06T02:34:00;100529;;;13.56;72.17
57250;BME280;43102;52.014;-0.680;2023-08-06T02:35:00;100529;;;13.56;72.17
57250;BME280;43102;52.014;-0.680;2023-08-06T02:36:02;100529;;;13.56;72.17
57250;BME280;43102;52.014;-0.680;2023-08-06T02:37:00;100529;;;13.56;72.17
57250;BME280;43102;52.014;-0.680;2023-08-06T02:38:00;100529;;;13.56;72.17
57250;BME280;43102;52.014;-0.680;2023-08-06T02:39:00;100531;;;13.55;72.00
57250;BME280;43102;52.014;-0.680;2023-08-06T02:40:00;100531;;;13.55;72.00
57250;BME280;43102;52.014;-0.680;2023-08-06T02:41:03;100531;;;13.55;72.00
57250;BME280;43102;52.014;-0.680;2023-08-06T02:42:00;100531;;;13.55;72.00
57250;BME280;43102;52.014;-0.680;2023-08-06T02:43:00;100531;;;13.55;72.00
57250;BME280;43102;52.014;-0.680;2023-08-06T02:44:00;100530;;;13.45;72.20
57250;BME280;43102;52.014;-0.680;2023-08-06T02:45:00;100530;;;13.45;72.20
57250;BME280;43102;52.014;-0.680;2023-08-06T02:46:00;100530;;;13.45;72.20
57250;BME280;43102;52.014;-0.680;2023-08-06T02:47:00;100530;;;13.45;72.20
57250;BME280;43102;52.014;-0.680;2023-08-06T02:48:00;100530;;;13.45;72.20
57250;BME280;43102;52.014;-0.680;2023-08-06T02:49:00;100526;;;13.49;71.98
57250;BME280;43102;52.014;-0.680;2023-08-06T02:50:00;100526;;;13.49;71.98
57250;BME280;43102;52.014;-0.680;2023-08-06T02:51:00;100526;;;13.49;71.98
57250;BME280;43102;52.014;-0.680;2023-08-06T02:52:00;100526;;;13.49;71.98
57250;BME280;43102;52.014;-0.680;2023-08-06T02:53:01;100526;;;13.49;71.98
57250;BME280;43102;52.014;-0.680;2023-08-06T02:54:00;100521;;;13.48;71.93
57250;BME280;43102;52.014;-0.680;2023-08-06T02:55:00;100521;;;13.48;71.93
57250;BME280;43102;52.014;-0.680;2023-08-06T02:56:00;100521;;;13.48;71.93
57250;BME280;43102;52.014;-0.680;2023-08-06T02:57:00;100521;;;13.48;71.93
57250;BME280;43102;52.014;-0.680;2023-08-06T02:58:00;100521;;;13.48;71.93
57250;BME280;43102;52.014;-0.680;2023-08-06T02:59:00;100529;;;13.47;71.79
57250;BME280;43102;52.014;-0.680;2023-08-06T03:00:00;100529;;;13.47;71.79
57250;BME280;43102;52.014;-0.680;2023-08-06T03:01:02;100529;;;13.47;71.79
57250;BME280;43102;52.014;-0.680;2023-08-06T03:02:00;100529;;;13.47;71.79
57250;BME280;43102;52.014;-0.680;2023-08-06T03:03:00;100529;;;13.47;71.79
57250;BME280;43102;52.014;-0.680;2023-08-06T03:04:00;100529;;;13.45;71.54
57250;BME280;43102;52.014;-0.680;2023-08-06T03:05:00;100529;;;13.45;71.54
57250;BME280;43102;52.014;-0.680;2023-08-06T03:06:00;100529;;;13.45;71.54
57250;BME280;43102;52.014;-0.680;2023-08-06T03:07:00;100529;;;13.45;71.54
57250;BME280;43102;52.014;-0.680;2023-08-06T03:08:00;100529;;;13.45;71.54
57250;BME280;43102;52.014;-0.680;2023-08-06T03:09:00;100527;;;13.44;71.52
57250;BME280;43102;52.014;-0.680;2023-08-06T03:10:00;100527;;;13.44;71.52
57250;BME280;43102;52.014;-0.680;2023-08-06T03:11:00;100527;;;13.44;71.52
57250;BME280;43102;52.014;-0.680;2023-08-06T03:12:00;100527;;;13.44;71.52
57250;BME280;43102;52.014;-0.680;2023-08-06T03:13:00;100527;;;13.44;71.52
57250;BME280;43102;52.014;-0.680;2023-08-06T03:14:00;100531;;;13.43;71.44
57250;BME280;43102;52.014;-0.680;2023-08-06T03:15:00;100531;;;13.43;71.44
57250;BME280;43102;52.014;-0.680;2023-08-06T03:16:00;100531;;;13.43;71.44
57250;BME280;43102;52.014;-0.680;2023-08-06T03:17:00;100531;;;13.43;71.44
57250;BME280;43102;52.014;-0.680;2023-08-06T03:18:00;100531;;;13.43;71.44
57250;BME280;43102;52.014;-0.680;2023-08-06T03:19:00;100542;;;13.39;71.34
57250;BME280;43102;52.014;-0.680;2023-08-06T03:20:00;100542;;;13.39;71.34
57250;BME280;43102;52.014;-0.680;2023-08-06T03:21:00;100542;;;13.39;71.34
57250;BME280;43102;52.014;-0.680;2023-08-06T03:22:00;100542;;;13.39;71.34
57250;BME280;43102;52.014;-0.680;2023-08-06T03:23:00;100542;;;13.39;71.34
57250;BME280;43102;52.014;-0.680;2023-08-06T03:24:00;100544;;;13.37;71.31
57250;BME280;43102;52.014;-0.680;2023-08-06T03:25:00;100544;;;13.37;71.31
57250;BME280;43102;52.014;-0.680;2023-08-06T03:26:02;100544;;;13.37;71.31
57250;BME280;43102;52.014;-0.680;2023-08-06T03:27:00;100544;;;13.37;71.31
57250;BME280;43102;52.014;-0.680;2023-08-06T03:28:00;100544;;;13.37;71.31
57250;BME280;43102;52.014;-0.680;2023-08-06T03:29:00;100547;;;13.33;71.28
57250;BME280;43102;52.014;-0.680;2023-08-06T03:30:00;100547;;;13.33;71.28
57250;BME280;43102;52.014;-0.680;2023-08-06T03:31:00;100547;;;13.33;71.28
57250;BME280;43102;52.014;-0.680;2023-08-06T03:32:00;100547;;;13.33;71.28
57250;BME280;43102;52.014;-0.680;2023-08-06T03:33:00;100547;;;13.33;71.28
57250;BME280;43102;52.014;-0.680;2023-08-06T03:34:00;100547;;;13.36;71.14
57250;BME280;43102;52.014;-0.680;2023-08-06T03:35:00;100547;;;13.36;71.14
57250;BME280;43102;52.014;-0.680;2023-08-06T03:36:00;100547;;;13.36;71.14
57250;BME280;43102;52.014;-0.680;2023-08-06T03:37:00;100547;;;13.36;71.14
57250;BME280;43102;52.014;-0.680;2023-08-06T03:38:00;100547;;;13.36;71.14
57250;BME280;43102;52.014;-0.680;2023-08-06T03:39:00;100554;;;13.34;71.12
57250;BME280;43102;52.014;-0.680;2023-08-06T03:40:00;100554;;;13.34;71.12
57250;BME280;43102;52.014;-0.680;2023-08-06T03:41:00;100554;;;13.34;71.12
57250;BME280;43102;52.014;-0.680;2023-08-06T03:42:00;100554;;;13.34;71.12
57250;BME280;43102;52.014;-0.680;2023-08-06T03:43:00;100554;;;13.34;71.12
57250;BME280;43102;52.014;-0.680;2023-08-06T03:44:00;100560;;;13.30;71.32
57250;BME280;43102;52.014;-0.680;2023-08-06T03:45:00;100560;;;13.30;71.32
57250;BME280;43102;52.014;-0.680;2023-08-06T03:46:00;100560;;;13.30;71.32
57250;BME280;43102;52.014;-0.680;2023-08-06T03:47:00;100560;;;13.30;71.32
57250;BME280;43102;52.014;-0.680;2023-08-06T03:48:00;100560;;;13.30;71.32
57250;BME280;43102;52.014;-0.680;2023-08-06T03:49:00;100557;;;13.26;71.25
57250;BME280;43102;52.014;-0.680;2023-08-06T03:50:00;100557;;;13.26;71.25
57250;BME280;43102;52.014;-0.680;2023-08-06T03:51:00;100557;;;13.26;71.25
57250;BME280;43102;52.014;-0.680;2023-08-06T03:52:00;100557;;;13.26;71.25
57250;BME280;43102;52.014;-0.680;2023-08-06T03:53:00;100557;;;13.26;71.25
57250;BME280;43102;52.014;-0.680;2023-08-06T03:54:00;100557;;;13.21;71.36
57250;BME280;43102;52.014;-0.680;2023-08-06T03:55:00;100557;;;13.21;71.36
57250;BME280;43102;52.014;-0.680;2023-08-06T03:56:00;100557;;;13.21;71.36
57250;BME280;43102;52.014;-0.680;2023-08-06T03:57:00;100557;;;13.21;71.36
57250;BME280;43102;52.014;-0.680;2023-08-06T03:58:00;100557;;;13.21;71.36
57250;BME280;43102;52.014;-0.680;2023-08-06T03:59:00;100558;;;13.14;71.53
57250;BME280;43102;52.014;-0.680;2023-08-06T04:00:00;100558;;;13.14;71.53
57250;BME280;43102;52.014;-0.680;2023-08-06T04:01:00;100558;;;13.14;71.53
57250;BME280;43102;52.014;-0.680;2023-08-06T04:02:00;100558;;;13.14;71.53
57250;BME280;43102;52.014;-0.680;2023-08-06T04:03:00;100558;;;13.14;71.53
57250;BME280;43102;52.014;-0.680;2023-08-06T04:04:00;100555;;;13.12;71.42
57250;BME280;43102;52.014;-0.680;2023-08-06T04:05:00;100555;;;13.12;71.42
57250;BME280;43102;52.014;-0.680;2023-08-06T04:06:01;100555;;;13.12;71.42
57250;BME280;43102;52.014;-0.680;2023-08-06T04:07:00;100555;;;13.12;71.42
57250;BME280;43102;52.014;-0.680;2023-08-06T04:08:00;100555;;;13.12;71.42
57250;BME280;43102;52.014;-0.680;2023-08-06T04:09:00;100560;;;13.12;71.51
57250;BME280;43102;52.014;-0.680;2023-08-06T04:10:01;100560;;;13.12;71.51
57250;BME280;43102;52.014;-0.680;2023-08-06T04:11:00;100560;;;13.12;71.51
57250;BME280;43102;52.014;-0.680;2023-08-06T04:12:00;100560;;;13.12;71.51
57250;BME280;43102;52.014;-0.680;2023-08-06T04:13:00;100560;;;13.12;71.51
57250;BME280;43102;52.014;-0.680;2023-08-06T04:14:00;100563;;;12.99;72.26
57250;BME280;43102;52.014;-0.680;2023-08-06T04:15:00;100563;;;12.99;72.26
57250;BME280;43102;52.014;-0.680;2023-08-06T04:16:03;100563;;;12.99;72.26
57250;BME280;43102;52.014;-0.680;2023-08-06T04:17:00;100563;;;12.99;72.26
57250;BME280;43102;52.014;-0.680;2023-08-06T04:18:00;100563;;;12.99;72.26
57250;BME280;43102;52.014;-0.680;2023-08-06T04:19:00;100570;;;13.06;71.82
57250;BME280;43102;52.014;-0.680;2023-08-06T04:20:00;100570;;;13.06;71.82
57250;BME280;43102;52.014;-0.680;2023-08-06T04:21:01;100570;;;13.06;71.82
57250;BME280;43102;52.014;-0.680;2023-08-06T04:22:00;100570;;;13.06;71.82
57250;BME280;43102;52.014;-0.680;2023-08-06T04:23:01;100570;;;13.06;71.82
57250;BME280;43102;52.014;-0.680;2023-08-06T04:24:00;100574;;;13.05;71.70
57250;BME280;43102;52.014;-0.680;2023-08-06T04:25:00;100574;;;13.05;71.70
57250;BME280;43102;52.014;-0.680;2023-08-06T04:26:00;100574;;;13.05;71.70
57250;BME280;43102;52.014;-0.680;2023-08-06T04:27:00;100574;;;13.05;71.70
57250;BME280;43102;52.014;-0.680;2023-08-06T04:28:00;100574;;;13.05;71.70
57250;BME280;43102;52.014;-0.680;2023-08-06T04:29:00;100575;;;13.03;71.77
57250;BME280;43102;52.014;-0.680;2023-08-06T04:30:00;100575;;;13.03;71.77
57250;BME280;43102;52.014;-0.680;2023-08-06T04:31:00;100575;;;13.03;71.77
57250;BME280;43102;52.014;-0.680;2023-08-06T04:32:00;100575;;;13.03;71.77
57250;BME280;43102;52.014;-0.680;2023-08-06T04:33:00;100575;;;13.03;71.77
57250;BME280;43102;52.014;-0.680;2023-08-06T04:34:00;100583;;;12.95;71.99
57250;BME280;43102;52.014;-0.680;2023-08-06T04:35:00;100583;;;12.95;71.99
57250;BME280;43102;52.014;-0.680;2023-08-06T04:36:00;100583;;;12.95;71.99
57250;BME280;43102;52.014;-0.680;2023-08-06T04:37:00;100583;;;12.95;71.99
57250;BME280;43102;52.014;-0.680;2023-08-06T04:38:00;100583;;;12.95;71.99
57250;BME280;43102;52.014;-0.680;2023-08-06T04:39:00;100589;;;13.00;71.82
57250;BME280;43102;52.014;-0.680;2023-08-06T04:40:00;100589;;;13.00;71.82
57250;BME280;43102;52.014;-0.680;2023-08-06T04:41:01;100589;;;13.00;71.82
57250;BME280;43102;52.014;-0.680;2023-08-06T04:42:00;100589;;;13.00;71.82
57250;BME280;43102;52.014;-0.680;2023-08-06T04:43:00;100589;;;13.00;71.82
57250;BME280;43102;52.014;-0.680;2023-08-06T04:44:00;100596;;;13.00;71.96
57250;BME280;43102;52.014;-0.680;2023-08-06T04:45:01;100596;;;13.00;71.96
57250;BME280;43102;52.014;-0.680;2023-08-06T04:46:00;100596;;;13.00;71.96
57250;BME280;43102;52.014;-0.680;2023-08-06T04:47:00;100596;;;13.00;71.96
57250;BME280;43102;52.014;-0.680;2023-08-06T04:48:00;100596;;;13.00;71.96
57250;BME280;43102;52.014;-0.680;2023-08-06T04:49:00;100600;;;12.98;71.95
57250;BME280;43102;52.014;-0.680;2023-08-06T04:50:00;100600;;;12.98;71.95
57250;BME280;43102;52.014;-0.680;2023-08-06T04:51:00;100600;;;12.98;71.95
57250;BME280;43102;52.014;-0.680;2023-08-06T04:52:00;100600;;;12.98;71.95
57250;BME280;43102;52.014;-0.680;2023-08-06T04:53:00;100600;;;12.98;71.95
57250;BME280;43102;52.014;-0.680;2023-08-06T04:54:00;100602;;;12.98;71.84
57250;BME280;43102;52.014;-0.680;2023-08-06T04:55:00;100602;;;12.98;71.84
57250;BME280;43102;52.014;-0.680;2023-08-06T04:56:00;100602;;;12.98;71.84
57250;BME280;43102;52.014;-0.680;2023-08-06T04:57:00;100602;;;12.98;71.84
57250;BME280;43102;52.014;-0.680;2023-08-06T04:58:00;100602;;;12.98;71.84
57250;BME280;43102;52.014;-0.680;2023-08-06T04:59:00;100607;;;12.96;72.04
57250;BME280;43102;52.014;-0.680;2023-08-06T05:00:00;100607;;;12.96;72.04
57250;BME280;43102;52.014;-0.680;2023-08-06T05:01:00;100607;;;12.96;72.04
57250;BME280;43102;52.014;-0.680;2023-08-06T05:02:00;100607;;;12.96;72.04
57250;BME280;43102;52.014;-0.680;2023-08-06T05:03:00;100607;;;12.96;72.04
57250;BME280;43102;52.014;-0.680;2023-08-06T05:04:00;100612;;;13.01;71.69
57250;BME280;43102;52.014;-0.680;2023-08-06T05:05:00;100612;;;13.01;71.69
57250;BME280;43102;52.014;-0.680;2023-08-06T05:06:00;100612;;;13.01;71.69
57250;BME280;43102;52.014;-0.680;2023-08-06T05:07:00;100612;;;13.01;71.69
57250;BME280;43102;52.014;-0.680;2023-08-06T05:08:00;100612;;;13.01;71.69
57250;BME280;43102;52.014;-0.680;2023-08-06T05:09:00;100617;;;13.01;71.64
57250;BME280;43102;52.014;-0.680;2023-08-06T05:10:00;100617;;;13.01;71.64
57250;BME280;43102;52.014;-0.680;2023-08-06T05:11:00;100617;;;13.01;71.64
57250;BME280;43102;52.014;-0.680;2023-08-06T05:12:00;100617;;;13.01;71.64
57250;BME280;43102;52.014;-0.680;2023-08-06T05:13:00;100617;;;13.01;71.64
57250;BME280;43102;52.014;-0.680;2023-08-06T05:14:00;100624;;;13.04;71.76
57250;BME280;43102;52.014;-0.680;2023-08-06T05:15:00;100624;;;13.04;71.76
57250;BME280;43102;52.014;-0.680;2023-08-06T05:16:00;100624;;;13.04;71.76
57250;BME280;43102;52.014;-0.680;2023-08-06T05:17:00;100624;;;13.04;71.76
57250;BME280;43102;52.014;-0.680;2023-08-06T05:18:00;100624;;;13.04;71.76
57250;BME280;43102;52.014;-0.680;2023-08-06T05:19:00;100634;;;13.08;71.67
57250;BME280;43102;52.014;-0.680;2023-08-06T05:20:00;100634;;;13.08;71.67
57250;BME280;43102;52.014;-0.680;2023-08-06T05:21:00;100634;;;13.08;71.67
57250;BME280;43102;52.014;-0.680;2023-08-06T05:22:00;100634;;;13.08;71.67
57250;BME280;43102;52.014;-0.680;2023-08-06T05:23:00;100634;;;13.08;71.67
57250;BME280;43102;52.014;-0.680;2023-08-06T05:24:00;100638;;;13.10;71.45
57250;BME280;43102;52.014;-0.680;2023-08-06T05:25:00;100638;;;13.10;71.45